createdAt,value
2022-10-05T00:02:24.183Z,19.95
2022-10-05T00:04:57.035Z,19.96
2022-10-05T00:07:25.054Z,19.94
2022-10-05T00:09:57.814Z,19.92
2022-10-05T00:12:25.961Z,19.94
2022-10-05T00:14:57.843Z,19.91
2022-10-05T00:17:27.789Z,19.94
2022-10-05T00:19:54.818Z,19.91
2022-10-05T00:22:33.708Z,19.88
2022-10-05T00:25:04.261Z,19.85
2022-10-05T00:27:37.614Z,19.87
2022-10-05T00:30:19.274Z,19.85
2022-10-05T00:32:46.612Z,19.82
2022-10-05T00:35:14.754Z,19.85
2022-10-05T00:37:42.009Z,19.81
2022-10-05T00:40:25.609Z,19.81
2022-10-05T00:43:06.375Z,19.81
2022-10-05T00:45:40.276Z,19.78
2022-10-05T00:48:25.867Z,19.79
2022-10-05T00:51:12.893Z,19.78
2022-10-05T00:53:51.482Z,19.78
2022-10-05T00:56:29.140Z,19.78
2022-10-05T00:59:14.327Z,19.73
2022-10-05T01:01:55.652Z,19.70
2022-10-05T01:04:28.791Z,19.66
2022-10-05T01:07:16.849Z,19.64
2022-10-05T01:10:08.135Z,19.61
2022-10-05T01:12:53.560Z,19.58
2022-10-05T01:15:41.536Z,19.54
2022-10-05T01:18:33.140Z,19.50
2022-10-05T01:21:21.564Z,19.50
2022-10-05T01:24:18.785Z,19.47
2022-10-05T01:27:11.664Z,19.41
2022-10-05T01:29:45.808Z,19.36
2022-10-05T01:32:28.127Z,19.34
2022-10-05T01:35:19.234Z,19.31
2022-10-05T01:37:53.970Z,19.33
2022-10-05T01:40:42.709Z,19.33
2022-10-05T01:43:31.881Z,19.33
2022-10-05T01:46:32.651Z,19.31
2022-10-05T01:49:02.163Z,19.30
2022-10-05T01:51:40.832Z,19.33
2022-10-05T01:54:26.304Z,19.30
2022-10-05T01:56:58.708Z,19.27
2022-10-05T01:59:57.657Z,19.22
2022-10-05T02:02:26.786Z,19.23
2022-10-05T02:05:11.379Z,19.20
2022-10-05T02:08:16.787Z,19.19
2022-10-05T02:10:59.684Z,19.16
2022-10-05T02:13:46.437Z,19.13
2022-10-05T02:16:23.374Z,19.05
2022-10-05T02:18:53.996Z,19.02
2022-10-05T02:21:22.031Z,18.98
2022-10-05T02:23:53.653Z,18.98
2022-10-05T02:26:21.757Z,18.92
2022-10-05T02:28:55.804Z,18.88
2022-10-05T02:31:28.748Z,18.87
2022-10-05T02:34:30.738Z,18.85
2022-10-05T02:37:15.990Z,18.87
2022-10-05T02:40:17.892Z,18.82
2022-10-05T02:42:53.188Z,18.82
2022-10-05T02:45:47.344Z,18.81
2022-10-05T02:48:28.979Z,18.81
2022-10-05T02:51:34.764Z,18.79
2022-10-05T02:54:10.353Z,18.79
2022-10-05T02:56:55.621Z,18.79
2022-10-05T02:59:29.768Z,18.75
2022-10-05T03:02:09.039Z,18.74
2022-10-05T03:04:38.397Z,18.72
2022-10-05T03:07:16.239Z,18.74
2022-10-05T03:09:54.316Z,18.72
2022-10-05T03:12:36.165Z,18.71
2022-10-05T03:15:30.628Z,18.74
2022-10-05T03:18:29.926Z,18.74
2022-10-05T03:21:17.921Z,18.72
2022-10-05T03:24:21.847Z,18.69
2022-10-05T03:26:51.000Z,18.72
2022-10-05T03:29:47.398Z,18.69
2022-10-05T03:32:22.969Z,18.71
2022-10-05T03:35:02.216Z,18.69
2022-10-05T03:38:05.461Z,18.68
2022-10-05T03:40:42.106Z,18.67
2022-10-05T03:43:27.507Z,18.65
2022-10-05T03:46:00.232Z,18.68
2022-10-05T03:48:38.053Z,18.71
2022-10-05T03:51:18.033Z,18.74
2022-10-05T03:53:56.767Z,18.75
2022-10-05T03:56:38.705Z,18.78
2022-10-05T03:59:19.857Z,18.81
2022-10-05T04:01:58.241Z,18.79
2022-10-05T04:05:08.116Z,18.76
2022-10-05T04:08:07.159Z,18.76
2022-10-05T04:10:43.596Z,18.74
2022-10-05T04:13:22.623Z,18.72
2022-10-05T04:16:04.243Z,18.71
2022-10-05T04:18:48.224Z,18.67
2022-10-05T04:21:25.340Z,18.65
2022-10-05T04:24:09.805Z,18.64
2022-10-05T04:26:48.475Z,18.61
2022-10-05T04:29:37.467Z,18.61
2022-10-05T04:32:16.018Z,18.64
2022-10-05T04:34:57.775Z,18.64
2022-10-05T04:37:57.915Z,18.63
2022-10-05T04:40:30.727Z,18.65
2022-10-05T04:43:38.500Z,18.64
2022-10-05T04:46:23.344Z,18.68
2022-10-05T04:49:21.269Z,18.65
2022-10-05T04:52:01.521Z,18.63
2022-10-05T04:54:37.183Z,18.63
2022-10-05T04:57:10.830Z,18.63
2022-10-05T04:59:54.741Z,18.57
2022-10-05T05:02:21.242Z,18.56
2022-10-05T05:05:05.996Z,18.53
2022-10-05T05:07:54.899Z,18.50
2022-10-05T05:10:51.553Z,18.47
2022-10-05T05:13:30.956Z,18.48
2022-10-05T05:16:08.915Z,18.51
2022-10-05T05:18:53.894Z,18.50
2022-10-05T05:21:57.679Z,18.48
2022-10-05T05:24:45.918Z,18.46
2022-10-05T05:27:30.602Z,18.43
2022-10-05T05:30:21.475Z,18.43
2022-10-05T05:33:06.723Z,18.44
2022-10-05T05:36:02.403Z,18.37
2022-10-05T05:38:42.851Z,18.36
2022-10-05T05:41:13.810Z,18.26
2022-10-05T05:43:55.119Z,18.23
2022-10-05T05:47:01.845Z,18.25
2022-10-05T05:49:49.823Z,18.25
2022-10-05T05:52:24.167Z,18.26
2022-10-05T05:55:02.168Z,18.26
2022-10-05T05:57:39.944Z,18.26
2022-10-05T06:00:15.426Z,18.27
2022-10-05T06:02:46.277Z,18.30
2022-10-05T06:05:28.840Z,18.32
2022-10-05T06:07:58.246Z,18.34
2022-10-05T06:10:41.558Z,18.33
2022-10-05T06:13:30.647Z,18.37
2022-10-05T06:16:06.254Z,18.38
2022-10-05T06:18:33.378Z,18.36
2022-10-05T06:21:30.765Z,18.41
2022-10-05T06:24:59.386Z,18.44
2022-10-05T06:27:40.708Z,18.47
2022-10-05T06:30:14.316Z,18.50
2022-10-05T06:33:12.134Z,18.53
2022-10-05T06:36:00.696Z,18.50
2022-10-05T06:38:45.740Z,18.53
2022-10-05T06:41:33.349Z,18.56
2022-10-05T06:44:29.202Z,18.58
2022-10-05T06:47:24.997Z,18.67
2022-10-05T06:50:13.161Z,18.72
2022-10-05T06:53:01.471Z,18.78
2022-10-05T06:55:50.746Z,18.85
2022-10-05T06:58:32.247Z,18.94
2022-10-05T07:01:20.792Z,19.01
2022-10-05T07:03:58.765Z,19.05
2022-10-05T07:06:25.270Z,19.11
2022-10-05T07:08:58.806Z,19.12
2022-10-05T07:11:51.460Z,19.22
2022-10-05T07:14:41.035Z,19.30
2022-10-05T07:17:10.499Z,19.37
2022-10-05T07:20:04.494Z,19.43
2022-10-05T07:23:03.264Z,19.51
2022-10-05T07:25:35.790Z,19.63
2022-10-05T07:28:07.277Z,19.81
2022-10-05T07:30:55.054Z,19.96
2022-10-05T07:33:40.249Z,20.13
2022-10-05T07:36:42.080Z,20.29
2022-10-05T07:39:42.015Z,20.39
2022-10-05T07:42:28.780Z,20.42
2022-10-05T07:45:28.987Z,20.44
2022-10-05T07:47:59.291Z,20.46
2022-10-05T07:50:40.088Z,20.43
2022-10-05T07:53:15.116Z,20.42
2022-10-05T07:55:50.358Z,20.43
2022-10-05T07:58:19.768Z,20.42
2022-10-05T08:01:08.136Z,20.43
2022-10-05T08:03:46.540Z,20.40
2022-10-05T08:06:35.878Z,20.44
2022-10-05T08:09:19.005Z,20.46
2022-10-05T08:11:56.130Z,20.47
2022-10-05T08:14:33.599Z,20.50
2022-10-05T08:17:03.607Z,20.51
2022-10-05T08:19:39.612Z,20.57
2022-10-05T08:22:14.010Z,20.60
2022-10-05T08:24:51.974Z,20.66
2022-10-05T08:27:40.178Z,20.73
2022-10-05T08:30:11.736Z,20.83
2022-10-05T08:32:43.130Z,20.95
2022-10-05T08:35:37.967Z,21.18
2022-10-05T08:38:16.568Z,21.45
2022-10-05T08:41:04.344Z,21.77
2022-10-05T08:43:46.174Z,22.05
2022-10-05T08:46:18.358Z,22.29
2022-10-05T08:49:04.477Z,22.56
2022-10-05T08:51:48.522Z,22.77
2022-10-05T08:54:35.981Z,22.97
2022-10-05T08:57:30.784Z,23.11
2022-10-05T09:00:20.481Z,23.29
2022-10-05T09:02:53.127Z,23.52
2022-10-05T09:05:28.434Z,23.67
2022-10-05T09:08:32.128Z,23.84
2022-10-05T09:10:59.389Z,23.94
2022-10-05T09:13:36.047Z,23.94
2022-10-05T09:16:03.335Z,24.01
2022-10-05T09:18:55.006Z,24.07
2022-10-05T09:21:27.706Z,24.10
2022-10-05T09:24:14.512Z,24.16
2022-10-05T09:26:41.025Z,24.21
2022-10-05T09:29:24.747Z,24.31
2022-10-05T09:31:56.903Z,24.32
2022-10-05T09:35:01.306Z,24.34
2022-10-05T09:37:45.964Z,24.32
2022-10-05T09:40:32.855Z,24.37
2022-10-05T09:43:28.973Z,24.38
2022-10-05T09:46:07.926Z,24.44
2022-10-05T09:49:03.043Z,24.52
2022-10-05T09:51:47.923Z,24.62
2022-10-05T09:54:37.085Z,24.64
2022-10-05T09:57:06.443Z,24.65
2022-10-05T09:59:38.746Z,24.69
2022-10-05T10:02:15.341Z,24.69
2022-10-05T10:04:50.628Z,24.69
2022-10-05T10:07:36.591Z,24.69
2022-10-05T10:10:32.062Z,24.75
2022-10-05T10:13:30.206Z,24.76
2022-10-05T10:16:02.568Z,24.76
2022-10-05T10:18:50.846Z,24.82
2022-10-05T10:21:39.636Z,24.85
2022-10-05T10:24:28.052Z,24.86
2022-10-05T10:27:32.129Z,24.79
2022-10-05T10:30:27.416Z,24.76
2022-10-05T10:33:11.993Z,24.79
2022-10-05T10:35:48.461Z,24.75
2022-10-05T10:38:28.649Z,24.75
2022-10-05T10:41:26.544Z,24.80
2022-10-05T10:44:11.956Z,24.89
2022-10-05T10:47:07.363Z,24.92
2022-10-05T10:49:55.189Z,24.79
2022-10-05T10:52:40.111Z,24.76
2022-10-05T10:55:44.562Z,24.79
2022-10-05T10:58:42.840Z,24.82
2022-10-05T11:01:27.402Z,24.83
2022-10-05T11:04:16.001Z,24.82
2022-10-05T11:07:04.434Z,24.89
2022-10-05T11:09:31.020Z,24.83
2022-10-05T11:12:03.620Z,24.82
2022-10-05T11:14:54.469Z,24.73
2022-10-05T11:17:39.150Z,24.65
2022-10-05T11:20:33.504Z,24.61
2022-10-05T11:23:39.052Z,24.59
2022-10-05T11:26:08.674Z,24.61
2022-10-05T11:28:52.762Z,24.58
2022-10-05T11:31:47.472Z,24.61
2022-10-05T11:34:32.808Z,24.65
2022-10-05T11:37:37.967Z,24.62
2022-10-05T11:40:36.419Z,24.55
2022-10-05T11:43:11.718Z,24.51
2022-10-05T11:45:47.363Z,24.52
2022-10-05T11:48:33.101Z,24.56
2022-10-05T11:51:12.271Z,24.61
2022-10-05T11:54:01.808Z,24.64
2022-10-05T11:56:54.564Z,24.68
2022-10-05T11:59:34.582Z,24.73
2022-10-05T12:02:41.311Z,24.72
2022-10-05T12:05:13.104Z,24.65
2022-10-05T12:07:45.600Z,24.59
2022-10-05T12:10:23.408Z,24.55
2022-10-05T12:13:03.635Z,24.56
2022-10-05T12:15:41.591Z,24.52
2022-10-05T12:18:40.082Z,24.45
2022-10-05T12:21:18.781Z,24.45
2022-10-05T12:23:48.390Z,24.39
2022-10-05T12:26:25.938Z,24.34
2022-10-05T12:29:08.926Z,24.31
2022-10-05T12:31:38.606Z,24.28
2022-10-05T12:34:20.305Z,24.27
2022-10-05T12:37:04.799Z,24.30
2022-10-05T12:39:59.368Z,24.31
2022-10-05T12:42:50.526Z,24.28
2022-10-05T12:45:47.165Z,24.31
2022-10-05T12:48:52.645Z,24.37
2022-10-05T12:51:40.596Z,24.37
2022-10-05T12:54:25.392Z,24.38
2022-10-05T12:56:58.141Z,24.38
2022-10-05T12:59:38.882Z,24.41
2022-10-05T13:02:33.024Z,24.42
2022-10-05T13:05:11.634Z,24.42
2022-10-05T13:07:56.443Z,24.45
2022-10-05T13:10:42.736Z,24.48
2022-10-05T13:13:41.643Z,24.52
2022-10-05T13:16:54.838Z,24.51
2022-10-05T13:19:47.852Z,24.52
2022-10-05T13:22:31.080Z,24.52
2022-10-05T13:25:18.982Z,24.59
2022-10-05T13:28:08.784Z,24.58
2022-10-05T13:30:38.053Z,24.62
2022-10-05T13:33:14.326Z,24.62
2022-10-05T13:35:43.472Z,24.59
2022-10-05T13:38:30.808Z,24.59
2022-10-05T13:41:29.020Z,24.62
2022-10-05T13:44:10.544Z,24.66
2022-10-05T13:46:43.038Z,24.66
2022-10-05T13:49:12.480Z,24.68
2022-10-05T13:51:45.775Z,24.71
2022-10-05T13:54:28.219Z,24.73
2022-10-05T13:57:04.108Z,24.75
2022-10-05T13:59:40.305Z,24.73
2022-10-05T14:02:10.804Z,24.75
2022-10-05T14:04:53.642Z,24.77
2022-10-05T14:07:23.245Z,24.76
2022-10-05T14:09:50.234Z,24.75
2022-10-05T14:12:22.390Z,24.72
2022-10-05T14:14:48.920Z,24.66
2022-10-05T14:17:33.376Z,24.68
2022-10-05T14:20:03.497Z,24.69
2022-10-05T14:22:30.278Z,24.66
2022-10-05T14:25:02.998Z,24.68
2022-10-05T14:27:34.009Z,24.68
2022-10-05T14:30:09.702Z,24.65
2022-10-05T14:33:00.557Z,24.68
2022-10-05T14:35:31.541Z,24.69
2022-10-05T14:38:02.262Z,24.68
2022-10-05T14:40:37.169Z,24.68
2022-10-05T14:43:15.986Z,24.65
2022-10-05T14:45:56.209Z,24.64
2022-10-05T14:48:23.721Z,24.62
2022-10-05T14:50:59.509Z,24.65
2022-10-05T14:53:38.875Z,24.62
2022-10-05T14:56:22.031Z,24.64
2022-10-05T14:59:14.257Z,24.64
2022-10-05T15:01:53.928Z,24.64
2022-10-05T15:05:01.343Z,24.59
2022-10-05T15:07:57.544Z,24.59
2022-10-05T15:10:49.812Z,24.59
2022-10-05T15:13:25.689Z,24.61
2022-10-05T15:16:01.119Z,24.65
2022-10-05T15:18:42.474Z,24.62
2022-10-05T15:21:47.802Z,24.59
2022-10-05T15:24:33.436Z,24.56
2022-10-05T15:27:04.065Z,24.54
2022-10-05T15:29:52.547Z,24.55
2022-10-05T15:32:34.159Z,24.54
2022-10-05T15:35:10.804Z,24.55
2022-10-05T15:37:49.900Z,24.54
2022-10-05T15:40:25.304Z,24.51
2022-10-05T15:43:01.629Z,24.48
2022-10-05T15:45:35.385Z,24.45
2022-10-05T15:48:15.052Z,24.41
2022-10-05T15:51:20.298Z,24.32
2022-10-05T15:54:28.423Z,24.25
2022-10-05T15:57:08.084Z,24.18
2022-10-05T15:59:55.413Z,24.18
2022-10-05T16:02:46.280Z,24.16
2022-10-05T16:05:40.220Z,24.14
2022-10-05T16:08:38.653Z,24.13
2022-10-05T16:11:15.750Z,24.07
2022-10-05T16:14:17.489Z,24.04
2022-10-05T16:16:53.739Z,23.97
2022-10-05T16:19:33.871Z,23.94
2022-10-05T16:22:25.258Z,23.92
2022-10-05T16:25:09.737Z,23.90
2022-10-05T16:27:52.769Z,23.84
2022-10-05T16:30:22.526Z,23.90
2022-10-05T16:33:02.143Z,23.89
2022-10-05T16:36:01.301Z,23.89
2022-10-05T16:39:09.500Z,23.89
2022-10-05T16:42:22.851Z,23.87
2022-10-05T16:45:07.004Z,23.86
2022-10-05T16:47:58.230Z,23.86
2022-10-05T16:50:33.641Z,23.77
2022-10-05T16:53:09.791Z,23.76
2022-10-05T16:55:40.866Z,23.73
2022-10-05T16:58:19.120Z,23.73
2022-10-05T17:01:08.076Z,23.70
2022-10-05T17:03:40.054Z,23.67
2022-10-05T17:06:34.771Z,23.67
2022-10-05T17:09:42.442Z,23.61
2022-10-05T17:12:30.268Z,23.55
2022-10-05T17:15:47.174Z,23.49
2022-10-05T17:18:51.604Z,23.45
2022-10-05T17:21:38.724Z,23.41
2022-10-05T17:24:11.388Z,23.39
2022-10-05T17:27:16.176Z,23.29
2022-10-05T17:29:52.006Z,23.28
2022-10-05T17:32:18.518Z,23.21
2022-10-05T17:35:04.204Z,23.18
2022-10-05T17:37:31.905Z,23.11
2022-10-05T17:39:59.131Z,23.08
2022-10-05T17:42:32.492Z,23.06
2022-10-05T17:45:14.952Z,23.00
2022-10-05T17:48:08.874Z,23.00
2022-10-05T17:51:00.129Z,22.94
2022-10-05T17:54:03.366Z,22.87
2022-10-05T17:56:33.784Z,22.86
2022-10-05T17:59:04.558Z,22.81
2022-10-05T18:01:41.760Z,22.81
2022-10-05T18:04:11.325Z,22.79
2022-10-05T18:07:07.308Z,22.74
2022-10-05T18:09:36.222Z,22.72
2022-10-05T18:12:11.088Z,22.72
2022-10-05T18:14:58.693Z,22.70
2022-10-05T18:17:51.223Z,22.69
2022-10-05T18:20:26.705Z,22.67
2022-10-05T18:23:36.278Z,22.69
2022-10-05T18:26:08.089Z,22.66
2022-10-05T18:28:43.614Z,22.66
2022-10-05T18:31:26.511Z,22.62
2022-10-05T18:34:17.771Z,22.59
2022-10-05T18:37:26.311Z,22.57
2022-10-05T18:40:14.511Z,22.57
2022-10-05T18:43:29.142Z,22.53
2022-10-05T18:46:22.676Z,22.51
2022-10-05T18:49:04.260Z,22.48
2022-10-05T18:52:09.410Z,22.52
2022-10-05T18:55:10.205Z,22.45
2022-10-05T18:58:14.216Z,22.45
2022-10-05T19:00:59.433Z,22.45
2022-10-05T19:03:29.342Z,22.42
2022-10-05T19:06:12.105Z,22.41
2022-10-05T19:08:51.567Z,22.39
2022-10-05T19:11:24.245Z,22.35
2022-10-05T19:14:08.692Z,22.38
2022-10-05T19:16:51.134Z,22.36
2022-10-05T19:19:45.786Z,22.34
2022-10-05T19:22:31.217Z,22.32
2022-10-05T19:25:21.952Z,22.32
2022-10-05T19:28:25.083Z,22.34
2022-10-05T19:31:12.832Z,22.35
2022-10-05T19:34:02.454Z,22.31
2022-10-05T19:36:59.206Z,22.29
2022-10-05T19:39:44.865Z,22.29
2022-10-05T19:42:36.655Z,22.26
2022-10-05T19:45:16.062Z,22.26
2022-10-05T19:48:20.107Z,22.26
2022-10-05T19:50:54.845Z,22.25
2022-10-05T19:53:46.868Z,22.26
2022-10-05T19:56:17.425Z,22.26
2022-10-05T19:58:44.778Z,22.25
2022-10-05T20:01:21.753Z,22.25
2022-10-05T20:03:48.709Z,22.21
2022-10-05T20:06:15.337Z,22.18
2022-10-05T20:08:45.639Z,22.17
2022-10-05T20:11:22.961Z,22.18
2022-10-05T20:13:52.300Z,22.17
2022-10-05T20:19:47.756Z,22.14
2022-10-05T20:22:37.440Z,22.15
2022-10-05T20:25:28.909Z,22.17
2022-10-05T20:27:56.671Z,22.14
2022-10-05T20:30:28.682Z,22.12
2022-10-05T20:32:58.261Z,22.11
2022-10-05T20:35:27.901Z,22.08
2022-10-05T20:38:00.374Z,22.07
2022-10-05T20:40:29.227Z,22.02
2022-10-05T20:42:57.085Z,22.02
2022-10-05T20:45:23.964Z,22.02
2022-10-05T20:47:50.791Z,21.98
2022-10-05T20:50:18.411Z,21.97
2022-10-05T20:52:45.041Z,21.98
2022-10-05T20:55:12.386Z,21.98
2022-10-05T20:57:42.265Z,21.98
2022-10-05T21:00:13.302Z,22.00
2022-10-05T21:02:40.052Z,22.02
2022-10-05T21:05:07.862Z,22.02
2022-10-05T21:07:35.169Z,22.04
2022-10-05T21:10:14.204Z,22.01
2022-10-05T21:12:41.167Z,22.02
2022-10-05T21:15:10.125Z,22.02
2022-10-05T21:17:38.087Z,21.98
2022-10-05T21:20:04.981Z,22.01
2022-10-05T21:22:31.649Z,21.98
2022-10-05T21:24:58.478Z,21.98
2022-10-05T21:27:25.098Z,22.01
2022-10-05T21:29:51.680Z,21.96
2022-10-05T21:32:18.228Z,21.94
2022-10-05T21:34:44.774Z,21.94
2022-10-05T21:37:11.410Z,21.94
2022-10-05T21:39:38.068Z,21.90
2022-10-05T21:42:04.793Z,21.90
2022-10-05T21:44:31.417Z,21.87
2022-10-05T21:46:58.102Z,21.86
2022-10-05T21:49:26.069Z,21.81
2022-10-05T21:51:52.877Z,21.84
2022-10-05T21:54:22.122Z,21.81
2022-10-05T21:56:51.559Z,21.83
2022-10-05T21:59:21.335Z,21.83
2022-10-05T22:01:47.977Z,21.81
2022-10-05T22:04:15.137Z,21.84
2022-10-05T22:06:41.938Z,21.90
2022-10-05T22:09:08.586Z,21.83
2022-10-05T22:11:35.246Z,21.86
2022-10-05T22:14:02.878Z,21.84
2022-10-05T22:16:32.851Z,21.87
2022-10-05T22:19:03.590Z,21.88
2022-10-05T22:21:30.622Z,21.87
2022-10-05T22:23:57.495Z,21.88
2022-10-05T22:26:24.814Z,21.88
2022-10-05T22:28:55.138Z,21.90
2022-10-05T22:31:22.095Z,21.88
2022-10-05T22:33:48.834Z,21.88
2022-10-05T22:36:16.047Z,21.88
2022-10-05T22:38:42.679Z,21.86
2022-10-05T22:41:11.439Z,21.84
2022-10-05T22:43:38.189Z,21.83
2022-10-05T22:46:12.672Z,21.87
2022-10-05T22:48:40.139Z,21.88
2022-10-05T22:51:07.592Z,21.90
2022-10-05T22:53:34.943Z,21.91
2022-10-05T22:56:12.715Z,21.91
2022-10-05T22:58:40.844Z,21.96
2022-10-05T23:01:10.620Z,21.98
2022-10-05T23:03:37.918Z,21.98
2022-10-05T23:06:10.300Z,21.97
2022-10-05T23:08:38.417Z,21.97
2022-10-05T23:11:05.019Z,21.93
2022-10-05T23:13:31.615Z,21.87
2022-10-05T23:15:58.198Z,21.83
2022-10-05T23:18:25.305Z,21.79
2022-10-05T23:20:55.861Z,21.80
2022-10-05T23:23:23.322Z,21.79
2022-10-05T23:25:50.488Z,21.70
2022-10-05T23:28:17.228Z,21.67
2022-10-05T23:30:44.412Z,21.64
2022-10-05T23:33:11.070Z,21.60
2022-10-05T23:35:37.634Z,21.62
2022-10-05T23:38:04.744Z,21.59
2022-10-05T23:40:31.373Z,21.59
2022-10-05T23:42:58.491Z,21.60
2022-10-05T23:45:25.201Z,21.57
2022-10-05T23:47:51.745Z,21.53
2022-10-05T23:50:20.565Z,21.50
2022-10-05T23:52:47.124Z,21.49
2022-10-05T23:55:13.731Z,21.46
2022-10-05T23:57:40.396Z,21.43
